Time;durP1;ratioP1;P1;durP2;ratioP2;P2;SDS_P1;SDS_P2;PMS_P1;PMS_P2;Temp;Humidity;BMP_temperature;BMP_pressure;BME280_temperature;BME280_humidity;BME280_pressure;Samples;Min_cycle;Max_cycle;Signal;HPM_P1;HPM_P2
2021/09/15 00:00:39;;;;;;;2.63;1.35;;;21.10;63.20;;;;;;4999332;28;20092;-60
2021/09/15 00:03:05;;;;;;;2.30;1.50;;;21.10;63.20;;;;;;4999545;28;20023;-61
2021/09/15 00:05:30;;;;;;;2.83;1.58;;;21.10;63.20;;;;;;4999396;28;20054;-61
2021/09/15 00:07:56;;;;;;;2.78;1.40;;;21.10;63.20;;;;;;4999386;28;20444;-61
2021/09/15 00:10:21;;;;;;;3.95;1.70;;;21.10;63.30;;;;;;4999320;28;20053;-61
2021/09/15 00:12:47;;;;;;;3.45;1.70;;;21.10;63.30;;;;;;4995517;28;20375;-60
2021/09/15 00:15:12;;;;;;;2.72;1.55;;;21.10;63.30;;;;;;4996315;28;20126;-60
2021/09/15 00:17:38;;;;;;;2.15;1.40;;;21.10;63.30;;;;;;4996196;28;20029;-61
2021/09/15 00:20:06;;;;;;;2.83;1.55;;;21.10;63.30;;;;;;4996291;28;20033;-61
2021/09/15 00:22:32;;;;;;;2.50;1.40;;;21.10;63.30;;;;;;4996099;28;20023;-60
2021/09/15 00:24:57;;;;;;;3.92;1.70;;;21.10;63.30;;;;;;4996048;28;20075;-61
2021/09/15 00:27:23;;;;;;;2.33;1.40;;;21.10;63.30;;;;;;4995993;28;20022;-60
2021/09/15 00:29:48;;;;;;;1.95;1.40;;;21.10;63.30;;;;;;4996039;28;20038;-60
2021/09/15 00:32:14;;;;;;;3.83;1.75;;;21.10;63.40;;;;;;4995937;28;20093;-61
2021/09/15 00:34:39;;;;;;;3.17;1.77;;;21.10;63.40;;;;;;4995834;28;20038;-60
2021/09/15 00:37:05;;;;;;;2.42;1.48;;;21.10;63.30;;;;;;4995834;28;20117;-60
2021/09/15 00:39:31;;;;;;;3.30;1.58;;;21.10;63.40;;;;;;4995849;28;20054;-62
2021/09/15 00:41:56;;;;;;;2.40;1.35;;;21.10;63.40;;;;;;4995815;28;20026;-62
2021/09/15 00:44:22;;;;;;;2.92;1.65;;;21.10;63.40;;;;;;4995809;28;20026;-60
2021/09/15 00:46:48;;;;;;;3.05;1.70;;;21.10;63.40;;;;;;4995631;28;20121;-61
2021/09/15 00:49:13;;;;;;;2.88;1.75;;;21.00;63.40;;;;;;4995753;28;20035;-62
2021/09/15 00:51:42;;;;;;;2.53;1.60;;;21.10;63.40;;;;;;4995910;28;20096;-64
2021/09/15 00:54:09;;;;;;;4.50;2.05;;;21.00;63.40;;;;;;4995644;28;20113;-61
2021/09/15 00:56:36;;;;;;;3.47;1.70;;;21.00;63.50;;;;;;4995546;28;20036;-62
2021/09/15 00:59:01;;;;;;;3.03;1.60;;;21.10;63.50;;;;;;4995488;28;20038;-63
2021/09/15 01:01:27;;;;;;;2.15;1.20;;;21.00;63.50;;;;;;4995371;28;20026;-62
2021/09/15 01:03:53;;;;;;;3.08;1.50;;;21.00;63.50;;;;;;4995399;28;20045;-62
2021/09/15 01:06:19;;;;;;;2.80;1.35;;;21.00;63.50;;;;;;4995397;28;20023;-62
2021/09/15 01:08:45;;;;;;;2.65;1.63;;;21.10;63.50;;;;;;4995271;28;20113;-61
2021/09/15 01:11:11;;;;;;;2.33;1.48;;;21.10;63.50;;;;;;4995299;28;20054;-62
2021/09/15 01:13:37;;;;;;;2.47;1.45;;;21.00;63.50;;;;;;4995141;28;20034;-62
2021/09/15 01:16:08;;;;;;;3.35;1.70;;;21.00;63.50;;;;;;4995304;28;20049;-61
2021/09/15 01:18:34;;;;;;;3.58;1.73;;;21.00;63.50;;;;;;4993935;28;20100;-62
2021/09/15 01:21:00;;;;;;;2.67;1.65;;;21.00;63.50;;;;;;4995407;28;20038;-62
2021/09/15 01:23:26;;;;;;;2.47;1.50;;;21.00;63.50;;;;;;4994962;28;20023;-61
2021/09/15 01:25:52;;;;;;;3.30;1.52;;;21.00;63.50;;;;;;4993773;28;20038;-62
2021/09/15 01:28:18;;;;;;;3.03;1.77;;;21.00;63.50;;;;;;4994926;28;20096;-61
2021/09/15 01:30:44;;;;;;;3.03;1.52;;;21.00;63.50;;;;;;4994900;28;20026;-61
2021/09/15 01:33:14;;;;;;;3.20;1.60;;;21.00;63.50;;;;;;4993500;28;20561;-61
2021/09/15 01:35:41;;;;;;;2.92;1.40;;;21.00;63.60;;;;;;4994678;28;20116;-61
2021/09/15 01:38:07;;;;;;;2.72;1.70;;;21.00;63.60;;;;;;4994746;28;20026;-61
2021/09/15 01:40:33;;;;;;;3.17;1.70;;;21.00;63.60;;;;;;4994952;28;20056;-61
2021/09/15 01:42:58;;;;;;;2.65;1.52;;;21.00;63.60;;;;;;4994890;28;20026;-62
2021/09/15 01:45:24;;;;;;;3.17;1.70;;;21.00;63.60;;;;;;4994707;28;20030;-61
2021/09/15 01:47:49;;;;;;;3.47;1.77;;;21.00;63.60;;;;;;4994384;28;20042;-62
2021/09/15 01:50:15;;;;;;;2.55;1.40;;;21.00;63.60;;;;;;4994500;28;20031;-61
2021/09/15 01:52:41;;;;;;;2.75;1.65;;;21.00;63.60;;;;;;4994290;28;20019;-62
2021/09/15 01:55:17;;;;;;;2.95;1.50;;;21.00;63.60;;;;;;4994360;28;20124;-62
2021/09/15 01:57:43;;;;;;;3.53;1.92;;;21.00;63.60;;;;;;4994418;28;20029;-62
2021/09/15 02:00:09;;;;;;;3.42;1.73;;;21.00;63.60;;;;;;4994343;28;20030;-62
2021/09/15 02:02:34;;;;;;;4.70;1.95;;;21.00;63.70;;;;;;4994333;28;20164;-61
2021/09/15 02:05:00;;;;;;;2.92;1.50;;;21.00;63.70;;;;;;4993083;28;20062;-61
2021/09/15 02:07:25;;;;;;;3.35;1.70;;;21.00;63.70;;;;;;4994138;28;20377;-62
2021/09/15 02:09:51;;;;;;;3.60;1.67;;;21.00;63.60;;;;;;4994200;28;20034;-61
2021/09/15 02:12:16;;;;;;;2.88;1.73;;;21.00;63.70;;;;;;4992866;28;20081;-61
2021/09/15 02:14:42;;;;;;;2.75;1.70;;;21.00;63.70;;;;;;4992692;28;20449;-62
2021/09/15 02:17:07;;;;;;;3.85;1.90;;;21.00;63.70;;;;;;4994044;28;20426;-62
2021/09/15 02:19:35;;;;;;;3.28;1.80;;;21.00;63.70;;;;;;4993990;28;20036;-61
2021/09/15 02:22:01;;;;;;;3.28;1.85;;;21.00;63.70;;;;;;4993919;28;20030;-61
2021/09/15 02:24:27;;;;;;;3.47;1.70;;;21.00;63.70;;;;;;4994062;28;20022;-61
2021/09/15 02:26:52;;;;;;;2.80;1.63;;;21.00;63.70;;;;;;4993826;28;20041;-62
2021/09/15 02:29:18;;;;;;;2.85;1.50;;;21.00;63.70;;;;;;4992607;28;20470;-61
2021/09/15 02:31:43;;;;;;;5.07;1.85;;;21.00;63.70;;;;;;4992662;28;20026;-61
2021/09/15 02:34:09;;;;;;;3.53;1.75;;;21.00;63.70;;;;;;4992341;28;20042;-62
2021/09/15 02:36:34;;;;;;;4.35;1.75;;;21.00;63.70;;;;;;4993265;28;20471;-62
2021/09/15 02:39:00;;;;;;;3.15;1.65;;;21.00;63.80;;;;;;4993990;28;20481;-62
2021/09/15 02:41:25;;;;;;;2.75;1.73;;;21.00;63.80;;;;;;4993799;28;20088;-62
2021/09/15 02:43:51;;;;;;;2.85;1.85;;;21.00;63.80;;;;;;4993590;28;20085;-61
2021/09/15 02:46:17;;;;;;;3.42;1.90;;;21.00;63.80;;;;;;4993506;28;20035;-61
2021/09/15 02:48:42;;;;;;;4.88;2.08;;;21.00;63.80;;;;;;4993643;28;20108;-62
2021/09/15 02:51:08;;;;;;;3.17;1.73;;;21.00;63.80;;;;;;4993606;28;20218;-61
2021/09/15 02:53:33;;;;;;;3.72;2.10;;;20.90;63.80;;;;;;4993468;28;20022;-60
2021/09/15 02:55:59;;;;;;;3.05;1.70;;;21.00;63.80;;;;;;4993538;28;20575;-61
2021/09/15 02:58:24;;;;;;;3.33;1.75;;;20.90;63.80;;;;;;4993553;28;20428;-61
2021/09/15 03:00:50;;;;;;;2.83;1.90;;;20.90;63.80;;;;;;4993516;28;20442;-61
2021/09/15 03:03:15;;;;;;;4.03;2.10;;;21.00;63.80;;;;;;4993545;28;20431;-61
2021/09/15 03:05:41;;;;;;;3.45;1.60;;;20.90;63.80;;;;;;4993426;28;20406;-61
2021/09/15 03:08:06;;;;;;;3.15;1.80;;;20.90;63.80;;;;;;4992318;28;20030;-61
2021/09/15 03:10:32;;;;;;;3.60;1.80;;;21.00;63.80;;;;;;4993387;28;20037;-61
2021/09/15 03:12:57;;;;;;;4.25;2.08;;;20.90;63.90;;;;;;4993395;28;20029;-61
2021/09/15 03:15:23;;;;;;;3.17;1.73;;;20.90;63.80;;;;;;4993294;28;20088;-61
2021/09/15 03:17:48;;;;;;;4.22;1.90;;;20.90;63.80;;;;;;4993327;28;20030;-61
2021/09/15 03:20:14;;;;;;;3.42;1.90;;;21.00;63.90;;;;;;4993250;28;20399;-61
2021/09/15 03:22:40;;;;;;;3.80;1.90;;;20.90;63.90;;;;;;4993279;28;20061;-62
2021/09/15 03:25:06;;;;;;;3.78;1.98;;;21.00;63.90;;;;;;4993238;28;20109;-61
2021/09/15 03:27:31;;;;;;;3.70;2.10;;;20.90;63.90;;;;;;4992152;28;20037;-61
2021/09/15 03:29:57;;;;;;;3.25;1.75;;;20.90;63.90;;;;;;4991969;28;20019;-61
2021/09/15 03:32:22;;;;;;;3.08;1.77;;;20.90;63.90;;;;;;4992019;28;20030;-61
2021/09/15 03:34:48;;;;;;;3.55;2.00;;;20.90;63.90;;;;;;4993065;28;20096;-61
2021/09/15 03:37:13;;;;;;;4.07;2.00;;;20.90;63.90;;;;;;4993185;28;20077;-62
2021/09/15 03:39:39;;;;;;;3.53;1.80;;;20.90;63.90;;;;;;4993161;28;20081;-61
2021/09/15 03:42:05;;;;;;;3.53;1.95;;;20.90;64.00;;;;;;4991871;28;20027;-61
2021/09/15 03:44:30;;;;;;;3.47;1.83;;;20.90;64.00;;;;;;4991845;28;20027;-61
2021/09/15 03:46:56;;;;;;;3.75;2.10;;;20.90;64.00;;;;;;4993664;28;20133;-61
2021/09/15 03:49:22;;;;;;;3.47;1.90;;;20.90;64.00;;;;;;4996720;28;20462;-61
2021/09/15 03:51:49;;;;;;;3.35;1.90;;;20.90;64.00;;;;;;4995560;28;20425;-61
2021/09/15 03:54:15;;;;;;;3.40;1.83;;;20.90;64.00;;;;;;4996640;28;20030;-61
2021/09/15 03:56:41;;;;;;;4.13;1.83;;;20.90;64.00;;;;;;4996679;28;20026;-61
2021/09/15 03:59:07;;;;;;;3.65;2.03;;;20.90;64.00;;;;;;4996835;28;20453;-62
2021/09/15 04:01:33;;;;;;;3.28;1.95;;;20.90;64.00;;;;;;4996626;28;20026;-62
2021/09/15 04:03:59;;;;;;;3.75;2.05;;;20.90;64.00;;;;;;4996832;28;20165;-62
2021/09/15 04:06:24;;;;;;;2.75;1.83;;;20.90;64.00;;;;;;4996484;28;20030;-60
2021/09/15 04:08:50;;;;;;;2.83;1.70;;;20.90;64.00;;;;;;4996522;28;20027;-62
2021/09/15 04:11:15;;;;;;;3.10;1.65;;;20.90;64.00;;;;;;4996611;28;20037;-62
2021/09/15 04:13:41;;;;;;;3.55;1.90;;;20.90;64.10;;;;;;4996502;28;20026;-61
2021/09/15 04:16:06;;;;;;;3.53;1.92;;;20.90;64.10;;;;;;4996678;28;20038;-61
2021/09/15 04:18:32;;;;;;;3.50;2.00;;;20.90;64.10;;;;;;4994980;28;20026;-62
2021/09/15 04:20:57;;;;;;;4.05;2.13;;;20.90;64.10;;;;;;4996231;28;20026;-60
2021/09/15 04:23:28;;;;;;;4.38;2.00;;;20.90;64.10;;;;;;4996192;28;20026;-61
2021/09/15 04:33:47;;;;;;;4.22;2.30;;;20.90;64.10;;;;;;4995934;28;20022;-61
2021/09/15 04:36:13;;;;;;;3.90;2.20;;;20.90;64.10;;;;;;4995965;28;20050;-61
2021/09/15 04:38:38;;;;;;;4.00;2.22;;;20.90;64.10;;;;;;4996037;28;20026;-61
2021/09/15 04:41:05;;;;;;;2.85;1.58;;;20.90;64.10;;;;;;4995858;28;20033;-61
2021/09/15 04:43:30;;;;;;;3.83;2.00;;;20.90;64.10;;;;;;4995999;28;20026;-61
2021/09/15 04:45:56;;;;;;;2.88;1.80;;;20.90;64.20;;;;;;4995765;28;20033;-61
2021/09/15 04:48:21;;;;;;;3.47;1.92;;;20.80;64.20;;;;;;4994276;28;20099;-60
2021/09/15 04:50:47;;;;;;;3.15;1.90;;;20.80;64.20;;;;;;4995734;28;20462;-61
2021/09/15 04:53:13;;;;;;;4.43;2.13;;;20.80;64.10;;;;;;4994329;28;20018;-61
2021/09/15 04:55:38;;;;;;;3.22;1.90;;;20.80;64.20;;;;;;4995509;28;20378;-61
2021/09/15 04:58:04;;;;;;;4.68;2.10;;;20.90;64.10;;;;;;4995066;28;20081;-61
2021/09/15 05:00:30;;;;;;;4.03;1.95;;;20.80;64.10;;;;;;4995542;28;20030;-61
2021/09/15 05:02:56;;;;;;;3.65;1.83;;;20.80;64.20;;;;;;4995531;28;20026;-61
2021/09/15 05:05:22;;;;;;;4.00;2.33;;;20.80;64.20;;;;;;4995421;28;20038;-61
2021/09/15 05:07:48;;;;;;;5.07;2.20;;;20.80;64.20;;;;;;4995384;28;20023;-62
2021/09/15 05:10:14;;;;;;;3.80;2.08;;;20.80;64.20;;;;;;4995348;28;20433;-61
2021/09/15 05:12:40;;;;;;;3.28;1.77;;;20.80;64.30;;;;;;4995414;28;20022;-61
2021/09/15 05:15:06;;;;;;;3.55;2.03;;;20.80;64.20;;;;;;4994064;28;20125;-61
2021/09/15 05:17:32;;;;;;;4.13;2.05;;;20.90;64.30;;;;;;4995113;28;20042;-61
2021/09/15 05:19:58;;;;;;;3.40;1.80;;;20.80;64.20;;;;;;4995170;28;20034;-61
2021/09/15 05:22:23;;;;;;;3.92;2.15;;;20.80;64.30;;;;;;4995073;28;20026;-61
2021/09/15 05:24:49;;;;;;;3.50;1.98;;;20.80;64.30;;;;;;4994961;28;20084;-61
2021/09/15 05:27:14;;;;;;;3.72;1.77;;;20.80;64.30;;;;;;4994977;28;20030;-61
2021/09/15 05:29:40;;;;;;;3.63;2.05;;;20.80;64.30;;;;;;4994883;28;20030;-61
2021/09/15 05:32:06;;;;;;;3.20;1.77;;;20.80;64.30;;;;;;4994951;28;20022;-61
2021/09/15 05:34:32;;;;;;;4.45;2.10;;;20.80;64.30;;;;;;4994733;28;20129;-61
2021/09/15 05:36:57;;;;;;;3.33;1.80;;;20.80;64.30;;;;;;4994813;28;20105;-61
2021/09/15 05:39:23;;;;;;;3.60;1.80;;;20.80;64.30;;;;;;4994692;28;20031;-61
2021/09/15 05:41:48;;;;;;;3.33;1.90;;;20.80;64.30;;;;;;4994743;28;20346;-61
2021/09/15 05:44:14;;;;;;;3.92;2.03;;;20.80;64.30;;;;;;4995048;28;20038;-62
2021/09/15 05:46:39;;;;;;;3.42;2.00;;;20.80;64.40;;;;;;4994423;28;20054;-62
2021/09/15 05:49:05;;;;;;;3.40;2.03;;;20.80;64.40;;;;;;4994549;28;20030;-61
2021/09/15 05:51:31;;;;;;;4.20;1.92;;;20.80;64.40;;;;;;4994572;28;20027;-61
2021/09/15 05:53:56;;;;;;;3.20;2.20;;;20.80;64.40;;;;;;4994449;28;20478;-62
2021/09/15 05:56:22;;;;;;;3.78;1.88;;;20.80;64.40;;;;;;4994350;28;20474;-62
2021/09/15 05:58:48;;;;;;;3.33;1.90;;;20.80;64.40;;;;;;4994255;28;20034;-61
2021/09/15 06:01:14;;;;;;;3.25;2.00;;;20.80;64.40;;;;;;4994163;28;20466;-61
2021/09/15 06:03:39;;;;;;;3.85;2.33;;;20.80;64.40;;;;;;4994345;28;20105;-61
2021/09/15 06:06:05;;;;;;;4.80;2.40;;;20.80;64.50;;;;;;4994061;28;20069;-61
2021/09/15 06:08:30;;;;;;;4.95;1.75;;;20.80;64.50;;;;;;4994065;28;20022;-60
2021/09/15 06:10:56;;;;;;;4.38;2.00;;;20.90;64.50;;;;;;4993163;28;20061;-60
2021/09/15 06:13:22;;;;;;;3.65;1.83;;;20.80;64.50;;;;;;4994234;28;20430;-62
2021/09/15 06:15:48;;;;;;;3.88;2.05;;;20.80;64.50;;;;;;4994066;28;20045;-61
2021/09/15 06:18:13;;;;;;;6.25;2.10;;;20.80;64.50;;;;;;4993979;28;20445;-62
2021/09/15 06:20:39;;;;;;;3.92;2.10;;;20.80;64.50;;;;;;4993859;28;20081;-62
2021/09/15 06:23:05;;;;;;;3.83;1.90;;;20.80;64.50;;;;;;4993855;28;20022;-62
2021/09/15 06:25:31;;;;;;;3.70;2.20;;;20.80;64.50;;;;;;4993653;28;20030;-62
2021/09/15 06:27:57;;;;;;;3.80;2.40;;;20.90;64.50;;;;;;4993668;28;20034;-62
2021/09/15 06:30:23;;;;;;;4.30;2.35;;;20.80;64.60;;;;;;4996866;28;20177;-62
2021/09/15 06:32:49;;;;;;;3.53;2.00;;;20.80;64.70;;;;;;5001584;28;20066;-62
2021/09/15 06:35:15;;;;;;;3.97;2.10;;;20.80;64.70;;;;;;5007167;28;20132;-62
2021/09/15 06:37:41;;;;;;;3.17;1.95;;;20.80;64.60;;;;;;5012305;28;20189;-62
2021/09/15 06:40:08;;;;;;;5.15;2.13;;;20.80;64.80;;;;;;5015501;28;20068;-62
2021/09/15 06:42:34;;;;;;;4.53;2.10;;;20.80;64.90;;;;;;5011663;28;20045;-62
2021/09/15 06:44:59;;;;;;;4.45;1.85;;;20.80;64.80;;;;;;5030274;28;20473;-62
2021/09/15 06:47:25;;;;;;;4.55;2.33;;;20.90;64.90;;;;;;5013355;28;20057;-62
2021/09/15 06:49:50;;;;;;;4.95;2.28;;;20.80;65.00;;;;;;5010799;28;20472;-62
2021/09/15 06:52:17;;;;;;;4.43;2.35;;;20.90;65.00;;;;;;5007909;28;20041;-63
2021/09/15 06:54:45;;;;;;;5.53;2.33;;;20.90;65.10;;;;;;5011399;28;20038;-60
2021/09/15 06:57:11;;;;;;;4.18;2.20;;;20.90;65.20;;;;;;5007211;28;20460;-61
2021/09/15 06:59:36;;;;;;;3.83;2.10;;;20.90;65.10;;;;;;5008195;28;20032;-61
2021/09/15 07:02:02;;;;;;;3.63;2.38;;;20.90;65.20;;;;;;5004078;28;20116;-60
2021/09/15 07:04:28;;;;;;;3.55;2.05;;;20.90;65.10;;;;;;5009379;28;20124;-60
2021/09/15 07:06:53;;;;;;;5.63;2.00;;;20.90;65.10;;;;;;5020745;28;20125;-60
2021/09/15 07:09:19;;;;;;;5.70;2.40;;;20.90;65.20;;;;;;5009962;28;20030;-61
2021/09/15 07:11:44;;;;;;;4.03;2.15;;;21.00;65.30;;;;;;5011284;28;20029;-60
2021/09/15 07:14:10;;;;;;;5.13;2.63;;;20.90;65.20;;;;;;5002207;28;20446;-60
2021/09/15 07:16:35;;;;;;;4.25;2.17;;;20.90;65.30;;;;;;5013740;28;20064;-62
2021/09/15 07:19:01;;;;;;;3.97;1.88;;;21.00;65.40;;;;;;5011175;28;20084;-61
2021/09/15 07:21:27;;;;;;;3.88;2.28;;;21.00;65.40;;;;;;5004532;28;20389;-60
2021/09/15 07:23:53;;;;;;;3.53;1.90;;;21.00;65.50;;;;;;5015478;28;20073;-60
2021/09/15 07:26:18;;;;;;;3.53;1.88;;;21.00;65.50;;;;;;5017786;28;20041;-60
2021/09/15 07:28:44;;;;;;;4.25;2.13;;;21.00;65.40;;;;;;5011917;28;20081;-60
2021/09/15 07:31:09;;;;;;;4.03;2.30;;;21.00;65.30;;;;;;5023590;28;20029;-60
2021/09/15 07:33:35;;;;;;;4.32;2.10;;;21.00;65.40;;;;;;5004793;28;20032;-60
2021/09/15 07:36:02;;;;;;;3.90;2.30;;;21.00;65.40;;;;;;5014726;28;20049;-60
2021/09/15 07:38:29;;;;;;;4.50;2.35;;;21.00;65.50;;;;;;5011833;28;20068;-61
2021/09/15 07:40:55;;;;;;;7.00;2.22;;;21.00;65.50;;;;;;5016076;28;20026;-60
2021/09/15 07:43:20;;;;;;;6.68;2.17;;;21.00;65.80;;;;;;4998667;28;20737;-60
2021/09/15 07:45:46;;;;;;;4.30;2.15;;;21.10;65.70;;;;;;5019985;28;20033;-60
2021/09/15 07:48:11;;;;;;;5.25;2.20;;;21.10;65.60;;;;;;5011947;28;20512;-60
2021/09/15 07:50:37;;;;;;;4.82;2.40;;;21.10;65.50;;;;;;5008310;28;20580;-60
2021/09/15 07:53:02;;;;;;;4.35;2.00;;;21.10;65.60;;;;;;5003508;28;20044;-59
2021/09/15 07:55:28;;;;;;;4.07;2.10;;;21.10;65.50;;;;;;5018785;28;20068;-62
2021/09/15 07:57:54;;;;;;;4.35;2.28;;;21.10;65.60;;;;;;5015667;28;20481;-60
2021/09/15 08:00:20;;;;;;;3.17;1.85;;;21.10;65.70;;;;;;5019043;28;20038;-60
2021/09/15 08:02:47;;;;;;;4.38;2.33;;;21.10;65.60;;;;;;5003873;28;20087;-62
2021/09/15 08:05:12;;;;;;;6.85;2.38;;;21.10;65.70;;;;;;5011111;28;20087;-61
2021/09/15 08:07:38;;;;;;;4.53;2.22;;;21.10;65.70;;;;;;5018273;28;20038;-60
2021/09/15 08:10:04;;;;;;;5.45;2.58;;;21.10;65.80;;;;;;5016310;28;20119;-61
2021/09/15 08:12:30;;;;;;;4.70;2.50;;;21.10;65.80;;;;;;5005220;28;20036;-60
2021/09/15 08:14:55;;;;;;;4.97;2.63;;;21.10;65.90;;;;;;5014381;28;20033;-61
2021/09/15 08:17:21;;;;;;;4.70;2.55;;;21.10;65.70;;;;;;5012369;28;20022;-61
2021/09/15 08:19:47;;;;;;;5.50;2.38;;;21.20;65.80;;;;;;5012841;28;20021;-62
2021/09/15 08:22:12;;;;;;;4.60;2.13;;;21.20;65.80;;;;;;4996672;28;20133;-63
2021/09/15 08:24:38;;;;;;;4.43;2.30;;;21.20;66.00;;;;;;5015152;28;20033;-61
2021/09/15 08:27:03;;;;;;;4.65;2.30;;;21.20;66.00;;;;;;5013415;28;20036;-61
2021/09/15 08:29:29;;;;;;;5.45;2.35;;;21.20;65.90;;;;;;5003171;28;20432;-61
2021/09/15 08:31:55;;;;;;;11.30;2.60;;;21.20;66.10;;;;;;4995730;28;20053;-61
2021/09/15 08:34:20;;;;;;;6.95;2.58;;;21.20;66.00;;;;;;5011441;28;20053;-62
2021/09/15 08:36:46;;;;;;;3.97;2.47;;;21.20;66.00;;;;;;5016199;28;20496;-61
2021/09/15 08:39:11;;;;;;;6.97;2.65;;;21.20;65.90;;;;;;5021058;28;20100;-61
2021/09/15 08:41:37;;;;;;;4.65;2.30;;;21.20;65.90;;;;;;5014093;28;20056;-61
2021/09/15 08:44:03;;;;;;;4.30;2.20;;;21.20;65.90;;;;;;5012402;28;20040;-60
2021/09/15 08:46:31;;;;;;;5.05;2.13;;;21.20;66.00;;;;;;5013495;28;20112;-60
2021/09/15 08:48:58;;;;;;;6.95;2.30;;;21.20;65.90;;;;;;5016460;28;20481;-60
2021/09/15 08:51:24;;;;;;;4.22;2.50;;;21.20;66.00;;;;;;5013482;28;20033;-61
2021/09/15 08:53:51;;;;;;;4.13;2.22;;;21.20;66.00;;;;;;5001577;28;20470;-62
2021/09/15 08:56:16;;;;;;;4.75;2.22;;;21.20;65.90;;;;;;5022722;28;20512;-61
2021/09/15 08:58:42;;;;;;;4.60;2.42;;;21.30;66.00;;;;;;5007985;28;20058;-62
2021/09/15 09:01:15;;;;;;;5.80;2.40;;;21.20;65.80;;;;;;5011583;28;20112;-61
2021/09/15 09:03:41;;;;;;;4.40;2.45;;;21.30;65.80;;;;;;5008953;28;20025;-62
2021/09/15 09:06:11;;;;;;;5.05;2.38;;;21.30;65.90;;;;;;5012403;28;20026;-61
2021/09/15 09:08:41;;;;;;;6.20;2.03;;;21.30;65.90;;;;;;5018928;28;20033;-61
2021/09/15 09:11:08;;;;;;;5.18;2.17;;;21.30;65.90;;;;;;5013707;28;20197;-61
2021/09/15 09:13:44;;;;;;;4.55;2.60;;;21.30;65.90;;;;;;4998907;28;20137;-62
2021/09/15 09:16:10;;;;;;;4.28;2.20;;;21.30;65.90;;;;;;5017957;28;20080;-62
2021/09/15 09:19:01;;;;;;;4.10;2.13;;;21.30;65.90;;;;;;5011829;28;20434;-61
2021/09/15 09:21:29;;;;;;;4.68;2.15;;;21.30;65.90;;;;;;5012074;28;20080;-59
2021/09/15 09:24:00;;;;;;;4.53;2.40;;;21.30;65.90;;;;;;5004117;28;20048;-60
2021/09/15 09:26:44;;;;;;;3.97;2.30;;;21.30;66.00;;;;;;5018005;28;20034;-59
2021/09/15 09:29:31;;;;;;;4.57;2.35;;;21.30;66.00;;;;;;5014582;28;20029;-60
2021/09/15 09:32:09;;;;;;;4.85;2.17;;;21.30;65.90;;;;;;5017234;28;20036;-60
2021/09/15 09:34:48;;;;;;;4.22;2.03;;;21.30;65.90;;;;;;5010645;28;20034;-59
2021/09/15 09:37:20;;;;;;;5.45;2.00;;;21.30;65.80;;;;;;5008705;28;20040;-60
2021/09/15 09:39:55;;;;;;;6.25;2.15;;;21.30;66.00;;;;;;5006397;28;20069;-59
2021/09/15 09:42:23;;;;;;;3.55;2.13;;;21.30;66.00;;;;;;4993701;28;20548;-59
2021/09/15 09:44:54;;;;;;;6.50;2.20;;;21.30;66.10;;;;;;5016139;28;20057;-60
2021/09/15 09:47:24;;;;;;;4.63;1.95;;;21.30;66.00;;;;;;5015984;28;20467;-60
2021/09/15 09:50:04;;;;;;;4.68;2.03;;;21.30;66.00;;;;;;5015435;28;20041;-61
2021/09/15 09:52:30;;;;;;;4.22;2.35;;;21.30;66.00;;;;;;5021415;28;20452;-61
2021/09/15 09:55:03;;;;;;;4.05;2.17;;;21.30;66.00;;;;;;5008801;28;20037;-61
2021/09/15 09:57:28;;;;;;;5.18;2.38;;;21.30;66.30;;;;;;5003475;28;20030;-60
2021/09/15 09:59:55;;;;;;;4.53;2.30;;;21.30;66.20;;;;;;5013373;28;20389;-62
2021/09/15 10:02:21;;;;;;;4.43;2.10;;;21.30;66.00;;;;;;5019978;28;20030;-60
2021/09/15 10:04:47;;;;;;;6.47;2.60;;;21.40;66.00;;;;;;5013879;28;20033;-60
2021/09/15 10:07:13;;;;;;;3.88;2.28;;;21.30;66.30;;;;;;5001390;28;20469;-61
2021/09/15 10:09:42;;;;;;;5.53;2.28;;;21.30;66.10;;;;;;5009923;28;20022;-61
2021/09/15 10:12:07;;;;;;;3.38;2.03;;;21.40;66.40;;;;;;5011216;28;20121;-60
2021/09/15 10:14:33;;;;;;;4.68;2.60;;;21.40;66.20;;;;;;5017440;28;20452;-61
2021/09/15 10:17:06;;;;;;;4.78;2.60;;;21.40;66.60;;;;;;5004508;28;20057;-59
2021/09/15 10:19:39;;;;;;;4.32;2.30;;;21.40;66.20;;;;;;5007856;28;20059;-60
2021/09/15 10:22:06;;;;;;;5.53;2.40;;;21.40;66.30;;;;;;5014287;28;20025;-60
2021/09/15 10:24:50;;;;;;;6.45;2.30;;;21.40;66.00;;;;;;5011621;28;20113;-61
2021/09/15 10:27:17;;;;;;;5.07;2.25;;;21.40;66.10;;;;;;4995467;28;20034;-60
2021/09/15 10:29:43;;;;;;;8.30;2.60;;;21.50;66.10;;;;;;5013762;28;20092;-61
2021/09/15 10:32:10;;;;;;;3.95;2.15;;;21.50;66.20;;;;;;5016216;28;20025;-61
2021/09/15 10:34:36;;;;;;;5.03;2.30;;;21.50;66.20;;;;;;5009238;28;20105;-60
2021/09/15 10:37:02;;;;;;;5.38;2.28;;;21.50;66.10;;;;;;5001039;28;20537;-60
2021/09/15 10:39:28;;;;;;;4.35;2.25;;;21.50;66.20;;;;;;5010965;28;20025;-60
2021/09/15 10:41:54;;;;;;;4.35;2.22;;;21.50;66.30;;;;;;5014903;28;20022;-62
2021/09/15 10:44:21;;;;;;;4.63;2.30;;;21.50;66.40;;;;;;5009316;28;20045;-61
2021/09/15 10:46:47;;;;;;;4.57;2.30;;;21.50;66.30;;;;;;4998316;28;20092;-61
2021/09/15 10:49:22;;;;;;;3.95;2.15;;;21.50;66.30;;;;;;5002104;28;20389;-61
2021/09/15 10:52:07;;;;;;;;;;;21.50;66.40;;;;;;5007389;28;20022;-62
2021/09/15 10:54:46;;;;;;;5.15;2.17;;;21.50;66.30;;;;;;5008789;28;19924;-62
2021/09/15 10:57:13;;;;;;;4.30;2.40;;;21.50;66.20;;;;;;4989361;28;20105;-62
2021/09/15 11:00:05;;;;;;;5.60;2.40;;;21.50;66.50;;;;;;5006676;28;20117;-60
2021/09/15 11:02:37;;;;;;;5.45;2.50;;;21.50;66.40;;;;;;5004010;28;20061;-62
2021/09/15 11:05:27;;;;;;;3.63;1.95;;;21.50;66.60;;;;;;5000656;28;20038;-60
2021/09/15 11:07:58;;;;;;;4.65;2.42;;;21.50;66.50;;;;;;4988496;28;20018;-62
2021/09/15 11:10:33;;;;;;;6.43;2.22;;;21.50;66.50;;;;;;4999559;28;20489;-60
2021/09/15 11:12:59;;;;;;;4.68;2.30;;;21.50;66.80;;;;;;5001950;28;20026;-60
2021/09/15 11:15:26;;;;;;;5.85;2.70;;;21.50;66.80;;;;;;5010224;28;20045;-61
2021/09/15 11:17:52;;;;;;;5.43;2.47;;;21.50;66.40;;;;;;4993843;28;20084;-60
2021/09/15 11:20:26;;;;;;;5.72;3.38;;;21.50;66.80;;;;;;4997427;28;20026;-61
2021/09/15 11:22:53;;;;;;;4.13;2.50;;;21.50;66.50;;;;;;5010690;28;20033;-61
2021/09/15 11:25:24;;;;;;;5.25;2.30;;;21.50;66.50;;;;;;5010863;28;20038;-61
2021/09/15 11:28:15;;;;;;;3.95;2.10;;;21.50;66.60;;;;;;4993491;28;20022;-60
2021/09/15 11:30:49;;;;;;;4.50;2.30;;;21.60;66.60;;;;;;5001461;28;20034;-60
2021/09/15 11:33:15;;;;;;;3.90;2.03;;;21.50;66.80;;;;;;5004875;28;20473;-60
2021/09/15 11:35:41;;;;;;;4.82;2.10;;;21.50;66.50;;;;;;5010625;28;20541;-60
2021/09/15 11:38:07;;;;;;;4.50;2.60;;;21.50;66.70;;;;;;4994789;28;20236;-60
2021/09/15 11:40:35;;;;;;;5.97;2.50;;;21.60;66.90;;;;;;5011797;28;20072;-61
2021/09/15 11:43:05;;;;;;;4.55;2.35;;;21.60;66.90;;;;;;5015098;28;20490;-60
2021/09/15 11:45:32;;;;;;;5.40;2.10;;;21.60;66.70;;;;;;5008734;28;20030;-61
2021/09/15 11:47:57;;;;;;;6.65;2.40;;;21.60;66.90;;;;;;4995968;28;20042;-60
2021/09/15 11:50:35;;;;;;;4.22;2.30;;;21.60;66.70;;;;;;5011964;28;20163;-60
2021/09/15 11:53:07;;;;;;;4.15;2.30;;;21.60;66.70;;;;;;5011816;28;20535;-61
2021/09/15 11:55:36;;;;;;;5.50;2.25;;;21.60;66.70;;;;;;5014543;28;20038;-60
2021/09/15 11:58:03;;;;;;;3.72;1.63;;;21.60;66.70;;;;;;5007813;28;20156;-60
2021/09/15 12:00:30;;;;;;;3.20;1.90;;;21.60;66.90;;;;;;5011063;28;20057;-60
2021/09/15 12:03:02;;;;;;;3.78;1.88;;;21.60;66.90;;;;;;5010929;28;20025;-60
2021/09/15 12:05:28;;;;;;;4.28;2.03;;;21.60;67.10;;;;;;5004822;28;20503;-60
2021/09/15 12:07:54;;;;;;;6.40;2.10;;;21.70;67.10;;;;;;5016494;28;20030;-60
2021/09/15 12:10:21;;;;;;;3.75;2.03;;;21.60;66.90;;;;;;5018107;28;20037;-61
2021/09/15 12:12:48;;;;;;;3.28;2.10;;;21.60;66.90;;;;;;5012667;28;20042;-61
2021/09/15 12:15:13;;;;;;;6.40;2.30;;;21.60;66.80;;;;;;5013302;28;20042;-60
2021/09/15 12:17:39;;;;;;;4.20;2.15;;;21.60;66.90;;;;;;5022910;28;20095;-61
2021/09/15 12:20:06;;;;;;;4.07;2.00;;;21.70;67.10;;;;;;5029209;28;20044;-61
2021/09/15 12:22:31;;;;;;;5.65;2.53;;;21.70;66.90;;;;;;5016333;28;20081;-60
2021/09/15 12:25:10;;;;;;;4.50;1.95;;;21.70;66.80;;;;;;5001920;28;20029;-61
2021/09/15 12:27:39;;;;;;;4.15;2.20;;;21.70;66.90;;;;;;5010881;28;20029;-60
2021/09/15 12:30:10;;;;;;;3.65;2.03;;;21.70;66.80;;;;;;5013234;28;20026;-60
2021/09/15 12:32:41;;;;;;;4.70;2.30;;;21.70;66.80;;;;;;5016317;28;20520;-59
2021/09/15 12:35:24;;;;;;;3.92;2.13;;;21.70;67.00;;;;;;5002074;28;20469;-61
2021/09/15 12:38:00;;;;;;;7.80;2.50;;;21.80;66.90;;;;;;5015868;28;20026;-59
2021/09/15 12:40:25;;;;;;;4.30;2.40;;;21.70;66.90;;;;;;5016136;28;20165;-60
2021/09/15 12:43:03;;;;;;;4.00;1.92;;;21.70;67.00;;;;;;5013680;28;20389;-59
2021/09/15 12:45:30;;;;;;;4.30;2.22;;;21.70;67.00;;;;;;5000007;28;20489;-60
2021/09/15 12:47:57;;;;;;;5.13;2.42;;;21.70;67.10;;;;;;5009610;28;20050;-62
2021/09/15 12:50:33;;;;;;;6.43;2.17;;;21.70;67.00;;;;;;5001869;28;20149;-60
2021/09/15 12:53:11;;;;;;;4.45;2.10;;;21.70;67.00;;;;;;5008714;28;20382;-61
2021/09/15 12:55:51;;;;;;;3.70;1.95;;;21.80;67.00;;;;;;5002558;28;20433;-60